Time;durP1;ratioP1;P1;durP2;ratioP2;P2;SDS_P1;SDS_P2;PMS_P1;PMS_P2;Temp;Humidity;BMP_temperature;BMP_pressure;BME280_temperature;BME280_humidity;BME280_pressure;Samples;Min_cycle;Max_cycle;Signal;HPM_P1;HPM_P2
2022/10/23 00:01:23;;;;;;;26.37;10.93;;;;;;;7.91;67.13;99715.13;4948329;28;20046;-93
2022/10/23 00:04:36;;;;;;;27.17;11.18;;;;;;;7.84;67.18;99724.69;4842847;29;20054;-94
2022/10/23 00:07:23;;;;;;;31.85;10.23;;;;;;;7.55;67.38;99676.50;4821083;29;20058;-94
2022/10/23 00:10:40;;;;;;;;;;;;;;;;;;;;;
2022/10/23 00:13:21;;;;;;;22.83;10.13;;;;;;;7.62;67.27;99662.59;4791376;29;20054;-94
2022/10/23 00:15:57;;;;;;;22.92;10.07;;;;;;;7.64;67.15;99674.78;4808544;29;20051;-93
2022/10/23 00:18:42;;;;;;;;;;;;;;;;;;;;;
2022/10/23 00:21:39;;;;;;;27.73;9.13;;;;;;;7.67;66.10;99636.13;4811439;29;20051;-92
2022/10/23 00:24:13;;;;;;;20.17;9.75;;;;;;;7.77;66.00;99655.06;4803699;29;20062;-93
2022/10/23 00:26:42;;;;;;;17.50;8.80;;;;;;;7.75;66.46;99660.00;4768001;30;20062;-92
2022/10/23 00:29:32;;;;;;;20.40;9.80;;;;;;;8.04;66.66;99691.84;4767193;30;20043;-92
2022/10/23 00:32:01;;;;;;;22.10;9.90;;;;;;;7.72;66.66;99644.25;4763224;30;20545;-93
2022/10/23 00:34:27;;;;;;;19.83;9.70;;;;;;;7.67;66.48;99647.00;4766428;30;20055;-92
2022/10/23 00:36:56;;;;;;;18.60;10.07;;;;;;;7.90;65.92;99663.69;4788749;30;20299;-94
2022/10/23 00:39:27;;;;;;;18.65;9.73;;;;;;;7.75;66.16;99645.59;4773178;30;20051;-92
2022/10/23 00:42:18;;;;;;;16.88;9.43;;;;;;;8.11;66.13;99707.84;4865471;29;20053;-93
2022/10/23 00:45:01;;;;;;;16.10;9.40;;;;;;;8.02;66.56;99715.84;4912339;29;20419;-95
2022/10/23 00:48:12;;;;;;;23.33;9.68;;;;;;;7.87;66.28;99677.84;4970657;28;20055;-95
2022/10/23 00:55:53;;;;;;;20.95;9.18;;;;;;;7.44;66.37;99617.81;4895901;29;20451;-95
2022/10/23 00:59:01;;;;;;;19.67;9.63;;;;;;;7.66;66.95;99661.72;4974863;23;20119;-93
2022/10/23 01:02:28;;;;;;;20.33;9.27;;;;;;;7.76;66.93;99677.94;4908645;29;20043;-94
2022/10/23 01:14:23;;;;;;;21.65;9.15;;;;;;;7.76;67.34;99679.88;4714318;30;20057;-93
2022/10/23 01:18:00;;;;;;;21.23;9.73;;;;;;;7.64;67.45;99679.41;4737104;30;20114;-95
2022/10/23 01:22:14;;;;;;;;;;;;;;;;;;;;;
2022/10/23 01:26:13;;;;;;;;;;;;;;;;;;;;;
2022/10/23 01:29:41;;;;;;;;;;;;;;;;;;;;;
2022/10/23 01:33:25;;;;;;;16.17;9.32;;;;;;;6.77;68.06;99612.03;4719834;30;20052;-92
2022/10/23 01:36:46;;;;;;;21.42;10.80;;;;;;;6.68;68.23;99614.53;4715449;30;20152;-93
2022/10/23 01:39:36;;;;;;;20.80;9.95;;;;;;;6.60;68.33;99612.41;4703933;30;20484;-92
2022/10/23 01:42:37;;;;;;;26.42;10.63;;;;;;;6.69;68.85;99631.63;4690709;30;20065;-94
2022/10/23 01:46:05;;;;;;;;;;;;;;;;;;;;;
2022/10/23 01:49:16;;;;;;;;;;;;;;;;;;;;;
2022/10/23 01:56:13;;;;;;;21.85;10.85;;;;;;;6.27;68.83;99592.19;4831383;29;20054;-94
2022/10/23 01:59:13;;;;;;;23.60;10.77;;;;;;;5.90;69.61;99552.66;4827409;29;20056;-94
2022/10/23 02:02:11;;;;;;;26.02;12.13;;;;;;;6.05;69.53;99579.75;4811816;29;20054;-94
2022/10/23 02:05:11;;;;;;;21.63;11.07;;;;;;;5.93;69.79;99573.84;4827016;29;20493;-94
2022/10/23 02:07:40;;;;;;;23.33;11.40;;;;;;;6.04;70.21;99590.91;4782531;29;20054;-94
2022/10/23 02:10:12;;;;;;;21.83;11.88;;;;;;;5.85;70.08;99571.66;4825353;29;20042;-93
2022/10/23 02:13:16;;;;;;;25.67;12.02;;;;;;;6.12;69.94;99617.47;4828766;29;20060;-91
2022/10/23 02:15:54;;;;;;;29.55;11.93;;;;;;;6.26;70.37;99656.53;4822509;29;20485;-92
2022/10/23 02:18:32;;;;;;;25.65;11.63;;;;;;;6.23;70.60;99645.41;4799978;29;20051;-92
2022/10/23 02:24:13;;;;;;;26.45;12.43;;;;;;;5.95;70.66;99606.91;4854350;29;20059;-92
2022/10/23 02:26:59;;;;;;;24.67;12.37;;;;;;;5.88;70.56;99609.09;4846967;29;20030;-93
2022/10/23 02:29:37;;;;;;;30.88;13.60;;;;;;;6.03;71.01;99641.66;5014220;24;20299;-94
2022/10/23 02:32:49;;;;;;;;;;;;;;;;;;;;;
2022/10/23 02:39:18;;;;;;;23.48;12.00;;;;;;;5.65;71.33;99610.47;4948637;29;19922;-92
2022/10/23 02:43:10;;;;;;;;;;;;;;;;;;;;;
2022/10/23 02:55:06;;;;;;;;;;;;;;;;;;;;;
2022/10/23 02:58:55;;;;;;;29.45;12.85;;;;;;;5.30;71.94;99576.09;4897537;29;20052;-95
2022/10/23 03:06:31;;;;;;;34.13;14.15;;;;;;;4.95;72.18;99540.56;4747962;30;20048;-93
2022/10/23 03:09:24;;;;;;;28.83;14.52;;;;;;;4.95;72.33;99550.59;4770725;30;20100;-95
2022/10/23 03:12:49;;;;;;;30.95;14.43;;;;;;;4.88;72.38;99534.59;4769081;30;20067;-96
2022/10/23 03:15:32;;;;;;;28.63;14.77;;;;;;;4.84;72.72;99525.41;4752582;30;20047;-94
2022/10/23 03:18:23;;;;;;;34.97;14.10;;;;;;;5.42;73.15;99615.38;4758772;30;20144;-95
2022/10/23 03:24:50;;;;;;;34.35;14.48;;;;;;;4.83;73.67;99542.72;4764287;30;20186;-94
2022/10/23 03:28:11;;;;;;;28.17;14.05;;;;;;;4.97;73.35;99550.31;4760493;30;20077;-94
2022/10/23 03:31:04;;;;;;;31.50;14.40;;;;;;;5.16;73.31;99576.59;4768045;30;20066;-95
2022/10/23 03:34:18;;;;;;;;;;;;;;;;;;;;;
2022/10/23 03:36:51;;;;;;;32.20;15.05;;;;;;;4.71;73.28;99524.03;4810633;29;20050;-94
2022/10/23 03:42:37;;;;;;;34.65;14.90;;;;;;;4.86;73.70;99546.78;4919012;29;20079;-93
2022/10/23 03:45:41;;;;;;;37.47;14.50;;;;;;;4.99;73.81;99575.25;4916314;29;20051;-95
2022/10/23 03:51:26;;;;;;;32.72;15.60;;;;;;;4.82;74.28;99559.25;4950639;29;20051;-95
2022/10/23 03:54:30;;;;;;;36.70;14.80;;;;;;;4.55;74.53;99508.03;4859435;29;20143;-95
2022/10/23 03:57:28;;;;;;;30.95;14.82;;;;;;;4.48;74.49;99506.41;4828105;29;20041;-93
2022/10/23 04:00:17;;;;;;;36.10;15.60;;;;;;;4.48;74.08;99498.28;4821105;29;20081;-95
2022/10/23 04:02:43;;;;;;;31.17;14.25;;;;;;;4.36;74.11;99478.75;4818200;29;20065;-95
2022/10/23 04:05:25;;;;;;;37.05;15.38;;;;;;;4.72;73.90;99531.06;4808596;29;20054;-95
2022/10/23 04:08:40;;;;;;;33.08;14.30;;;;;;;4.78;74.31;99540.00;4818704;29;20054;-95
2022/10/23 04:11:27;;;;;;;36.65;14.73;;;;;;;4.81;74.37;99536.78;4775035;30;20058;-94
2022/10/23 04:14:01;;;;;;;30.30;13.57;;;;;;;4.56;73.87;99488.81;4808582;29;20059;-94
2022/10/23 04:16:38;;;;;;;32.28;14.48;;;;;;;4.57;73.88;99493.16;4818884;29;20046;-93
2022/10/23 04:19:28;;;;;;;29.10;14.20;;;;;;;4.76;73.80;99520.50;4795111;29;20049;-94
2022/10/23 04:22:13;;;;;;;35.97;15.82;;;;;;;4.80;74.13;99528.91;4797937;29;20081;-93
2022/10/23 04:24:45;;;;;;;46.17;17.45;;;;;;;4.75;74.35;99529.72;4807172;29;20046;-94
2022/10/23 04:27:24;;;;;;;34.25;15.20;;;;;;;5.00;74.12;99569.56;4789769;29;20064;-96
2022/10/23 04:29:56;;;;;;;32.58;15.57;;;;;;;4.36;74.65;99451.69;4835500;29;20061;-94
2022/10/23 04:32:31;;;;;;;35.22;15.45;;;;;;;5.08;74.63;99569.03;4831888;29;20053;-93
2022/10/23 04:35:23;;;;;;;34.15;15.57;;;;;;;4.65;74.28;99497.22;4851592;29;20066;-94
2022/10/23 04:38:31;;;;;;;34.70;14.80;;;;;;;4.50;74.64;99467.41;4793330;29;20083;-96
2022/10/23 04:44:10;;;;;;;40.63;14.82;;;;;;;4.92;74.19;99507.78;4759873;30;20056;-96
2022/10/23 04:47:01;;;;;;;39.78;15.23;;;;;;;4.53;74.33;99456.03;4764423;30;20044;-94
2022/10/23 04:49:34;;;;;;;41.70;16.75;;;;;;;4.48;74.48;99441.44;4746138;30;20059;-95
2022/10/23 04:52:42;;;;;;;47.55;16.60;;;;;;;4.84;74.73;99490.19;4762662;30;20048;-93
2022/10/23 04:58:53;;;;;;;;;;;;;;;;;;;;;
2022/10/23 05:01:23;;;;;;;40.55;17.30;;;;;;;4.86;75.37;99517.78;4745356;30;20060;-95
2022/10/23 05:04:02;;;;;;;41.05;17.50;;;;;;;4.59;75.44;99461.19;4748118;30;20055;-94
2022/10/23 05:10:31;;;;;;;40.55;17.23;;;;;;;4.70;75.77;99472.84;4856793;29;20058;-92
2022/10/23 05:14:17;;;;;;;;;;;;;;;;;;;;;
2022/10/23 05:17:58;;;;;;;41.75;16.60;;;;;;;5.22;75.99;99517.00;4793181;29;20053;-94
2022/10/23 05:20:29;;;;;;;40.60;17.27;;;;;;;5.32;75.94;99520.50;4829074;29;20056;-92
2022/10/23 05:26:04;;;;;;;47.50;18.05;;;;;;;5.57;75.30;99527.78;5540723;23;20062;-87
2022/10/23 05:28:31;;;;;;;45.92;17.98;;;;;;;5.73;75.61;99534.00;4958115;28;20042;-88
2022/10/23 05:31:00;;;;;;;48.17;20.83;;;;;;;5.65;75.45;99512.84;4924786;28;20047;-89
2022/10/23 05:33:29;;;;;;;41.00;18.25;;;;;;;5.53;75.50;99485.19;4978706;28;20448;-86
2022/10/23 05:35:56;;;;;;;39.15;16.75;;;;;;;5.60;75.23;99493.88;4975360;28;20050;-86
2022/10/23 05:38:22;;;;;;;;;;;;;;;5.99;74.83;99534.72;4927727;28;20572;-87
2022/10/23 05:40:52;;;;;;;44.65;18.67;;;;;;;5.92;74.30;99490.78;4941361;28;19932;-84
2022/10/23 05:43:22;;;;;;;34.80;16.55;;;;;;;6.18;74.36;99515.13;4942106;28;20047;-87
2022/10/23 05:45:53;;;;;;;40.17;17.58;;;;;;;6.16;74.10;99504.56;4956849;28;20070;-88
2022/10/23 05:48:54;;;;;;;32.50;15.70;;;;;;;6.40;74.02;99510.13;4899270;29;20052;-85
2022/10/23 05:51:55;;;;;;;42.53;17.45;;;;;;;6.41;73.45;99509.03;4913993;29;20525;-85
2022/10/23 05:54:33;;;;;;;46.80;18.67;;;;;;;6.40;73.94;99506.59;4937083;28;20062;-85
2022/10/23 05:57:19;;;;;;;42.22;18.58;;;;;;;6.61;73.31;99504.56;4973654;28;20051;-84
2022/10/23 05:59:51;;;;;;;36.97;17.20;;;;;;;6.48;72.93;99487.78;4972995;28;20082;-85
2022/10/23 06:02:26;;;;;;;37.42;17.17;;;;;;;6.64;72.52;99509.44;4990724;28;20052;-86
2022/10/23 06:04:59;;;;;;;38.67;17.13;;;;;;;6.56;72.71;99500.78;4961479;28;20500;-85
2022/10/23 06:07:47;;;;;;;45.75;17.98;;;;;;;6.73;72.54;99513.19;4985388;28;20487;-86
2022/10/23 06:10:13;;;;;;;37.15;16.52;;;;;;;6.68;72.43;99508.56;4969646;28;20093;-84
2022/10/23 06:12:43;;;;;;;38.90;16.63;;;;;;;6.71;72.62;99501.75;4952832;28;20101;-85
2022/10/23 06:15:14;;;;;;;42.75;19.02;;;;;;;6.69;72.14;99471.34;4992971;28;20046;-86
2022/10/23 06:18:00;;;;;;;41.25;17.35;;;;;;;6.77;71.70;99485.16;4977217;28;20070;-85
2022/10/23 06:20:26;;;;;;;35.42;16.83;;;;;;;6.83;72.00;99496.78;4973274;28;20038;-85
2022/10/23 06:23:03;;;;;;;37.22;16.73;;;;;;;6.91;71.71;99469.00;4941883;28;20085;-87
2022/10/23 06:25:53;;;;;;;37.42;16.80;;;;;;;6.99;71.47;99476.56;4961831;28;20138;-84
2022/10/23 06:28:25;;;;;;;39.75;17.67;;;;;;;7.11;71.46;99470.72;4957025;28;20042;-85
2022/10/23 06:30:51;;;;;;;55.50;20.73;;;;;;;7.23;70.81;99484.75;4955512;28;20030;-85
2022/10/23 06:33:17;;;;;;;42.90;19.27;;;;;;;7.05;70.71;99461.00;4966922;28;20054;-86
2022/10/23 06:35:44;;;;;;;40.83;18.77;;;;;;;7.19;70.27;99477.47;4969426;28;20516;-85
2022/10/23 06:38:12;;;;;;;40.35;19.85;;;;;;;7.04;70.66;99437.63;4951164;28;20413;-88
2022/10/23 06:40:51;;;;;;;37.33;17.55;;;;;;;7.27;70.61;99465.97;4956883;28;20042;-85
2022/10/23 06:43:30;;;;;;;37.22;17.73;;;;;;;7.33;70.44;99478.41;4969973;28;20073;-93
2022/10/23 06:46:18;;;;;;;32.75;15.73;;;;;;;7.47;70.15;99483.97;4962709;28;20052;-92
2022/10/23 06:49:24;;;;;;;47.45;18.05;;;;;;;7.52;70.00;99476.56;4968877;28;20046;-93
2022/10/23 06:52:02;;;;;;;39.25;16.02;;;;;;;7.17;69.59;99411.69;4919882;29;20142;-95
2022/10/23 06:54:36;;;;;;;37.47;16.73;;;;;;;7.30;69.45;99411.81;4923015;29;20052;-93
2022/10/23 06:57:18;;;;;;;35.35;16.83;;;;;;;7.25;69.11;99401.00;4901712;29;20056;-93
2022/10/23 06:59:46;;;;;;;37.47;16.35;;;;;;;7.43;69.35;99433.97;4877723;29;20055;-91
2022/10/23 07:02:13;;;;;;;33.03;15.63;;;;;;;7.13;69.10;99380.75;4857198;29;20053;-91
2022/10/23 07:04:41;;;;;;;32.13;16.13;;;;;;;7.05;69.13;99363.13;4855627;29;20049;-92
2022/10/23 07:07:30;;;;;;;33.08;16.08;;;;;;;7.11;69.04;99375.59;4860807;29;20198;-93
2022/10/23 07:09:58;;;;;;;59.75;18.98;;;;;;;7.40;69.12;99388.31;4856665;29;20139;-93
2022/10/23 07:13:07;;;;;;;36.00;16.35;;;;;;;7.38;68.71;99390.50;4856539;29;20040;-92
2022/10/23 07:15:52;;;;;;;35.70;17.23;;;;;;;7.44;68.87;99397.50;4838516;29;20146;-93
2022/10/23 07:18:43;;;;;;;37.25;18.13;;;;;;;7.41;69.13;99398.91;4845365;29;20062;-93
2022/10/23 07:21:38;;;;;;;40.83;17.17;;;;;;;7.38;68.60;99355.97;4808509;29;20062;-90
2022/10/23 07:24:26;;;;;;;38.33;18.40;;;;;;;7.46;68.62;99379.81;4868938;29;20548;-91
2022/10/23 07:26:54;;;;;;;39.65;16.85;;;;;;;7.70;68.65;99412.44;4855383;29;20065;-92
2022/10/23 07:29:23;;;;;;;36.70;18.23;;;;;;;7.28;67.96;99346.03;4837693;29;20041;-92
2022/10/23 07:32:01;;;;;;;37.97;16.25;;;;;;;7.44;68.54;99370.31;4841815;29;20057;-91
2022/10/23 07:35:09;;;;;;;45.25;17.48;;;;;;;7.20;68.22;99324.13;4826923;29;20053;-93
2022/10/23 07:37:38;;;;;;;37.95;17.45;;;;;;;7.25;68.32;99330.31;4843251;29;20586;-90
2022/10/23 07:40:06;;;;;;;44.28;17.50;;;;;;;7.92;68.45;99414.59;4931112;29;20079;-91
2022/10/23 07:42:48;;;;;;;41.35;17.17;;;;;;;7.82;68.20;99392.97;4911922;29;20079;-92
2022/10/23 07:45:15;;;;;;;38.35;17.50;;;;;;;7.70;68.02;99379.78;4910280;29;20062;-91
2022/10/23 07:47:50;;;;;;;38.95;17.20;;;;;;;7.92;67.70;99381.13;4910459;29;20040;-90
2022/10/23 07:50:19;;;;;;;41.63;17.40;;;;;;;7.78;67.96;99367.41;4914886;29;20047;-91
2022/10/23 07:52:48;;;;;;;37.60;16.95;;;;;;;7.85;68.45;99365.16;4912750;29;20087;-93
2022/10/23 07:55:18;;;;;;;45.13;18.77;;;;;;;8.14;67.63;99402.31;4928720;29;20113;-92
2022/10/23 07:57:53;;;;;;;;;;;;;;;8.20;67.71;99412.03;4912200;29;20047;-92
2022/10/23 08:00:32;;;;;;;36.10;16.48;;;;;;;7.83;67.95;99375.53;4904692;29;19982;-93
2022/10/23 08:03:11;;;;;;;41.70;18.30;;;;;;;7.46;68.44;99333.56;4893696;29;20043;-94
2022/10/23 08:05:39;;;;;;;50.67;18.42;;;;;;;7.69;68.54;99370.00;4878397;29;20044;-93
2022/10/23 08:08:08;;;;;;;45.27;19.77;;;;;;;7.74;68.61;99382.72;4911204;29;20059;-95
2022/10/23 08:10:56;;;;;;;44.85;18.92;;;;;;;7.79;68.53;99362.81;4923965;29;20048;-94
2022/10/23 08:13:28;;;;;;;44.33;18.48;;;;;;;8.03;68.64;99393.47;4913443;29;20505;-92
2022/10/23 08:16:11;;;;;;;43.95;19.70;;;;;;;7.77;68.51;99344.03;4926850;29;20048;-90
2022/10/23 08:18:59;;;;;;;61.45;18.52;;;;;;;7.78;68.01;99337.47;4910831;29;20044;-91
2022/10/23 08:21:30;;;;;;;49.88;18.60;;;;;;;7.99;68.05;99376.94;4893843;29;20051;-93
2022/10/23 08:24:53;;;;;;;46.22;18.15;;;;;;;7.90;67.96;99347.94;4910084;29;20036;-94
2022/10/23 08:27:21;;;;;;;48.25;19.05;;;;;;;8.05;68.28;99364.06;4844249;29;20080;-91
2022/10/23 08:29:50;;;;;;;51.20;20.40;;;;;;;7.87;68.10;99349.34;4829100;29;20052;-94
2022/10/23 08:32:22;;;;;;;65.15;23.10;;;;;;;8.29;68.36;99406.72;4838369;29;20071;-92
2022/10/23 08:34:58;;;;;;;64.22;20.98;;;;;;;7.81;68.42;99325.22;4855002;29;20080;-93
2022/10/23 08:37:32;;;;;;;58.30;24.08;;;;;;;7.69;68.77;99326.47;4857167;29;20053;-93
2022/10/23 08:43:12;;;;;;;50.20;19.17;;;;;;;8.21;69.22;99402.75;4757877;30;20482;-91
2022/10/23 08:46:23;;;;;;;53.63;19.13;;;;;;;7.83;69.28;99339.34;4840245;29;20050;-96
2022/10/23 08:49:47;;;;;;;54.72;20.23;;;;;;;7.80;68.86;99307.28;4844600;29;20151;-91
2022/10/23 08:53:05;;;;;;;63.25;20.60;;;;;;;8.28;68.72;99372.41;4841354;29;20046;-92
2022/10/23 08:55:42;;;;;;;;;;;;;;;8.39;68.76;99385.63;4836127;29;20519;-92
2022/10/23 08:58:30;;;;;;;58.17;20.25;;;;;;;8.43;69.02;99386.63;4825408;29;19990;-94
2022/10/23 09:01:43;;;;;;;55.75;21.70;;;;;;;8.51;68.45;99374.28;4822153;29;20026;-94
2022/10/23 09:04:53;;;;;;;50.92;19.88;;;;;;;8.16;68.77;99327.41;4891227;29;20151;-92
2022/10/23 09:07:31;;;;;;;53.85;20.67;;;;;;;8.49;69.04;99379.19;4845720;29;20126;-92
2022/10/23 09:10:36;;;;;;;52.53;19.60;;;;;;;7.94;68.94;99286.34;4861637;29;20053;-92
2022/10/23 09:13:31;;;;;;;48.45;19.42;;;;;;;8.47;69.33;99368.59;4866637;29;20065;-89
2022/10/23 09:17:21;;;;;;;55.53;21.17;;;;;;;8.41;69.28;99367.06;4841624;29;20073;-92
2022/10/23 09:20:10;;;;;;;57.78;20.67;;;;;;;8.44;69.23;99360.19;4858445;29;20080;-93
2022/10/23 09:22:59;;;;;;;58.20;20.27;;;;;;;8.30;69.09;99313.03;4853204;29;20057;-92
2022/10/23 09:26:00;;;;;;;51.30;20.25;;;;;;;7.95;69.12;99275.19;4878255;29;20111;-94
2022/10/23 09:28:55;;;;;;;;;;;;;;;;;;;;;
2022/10/23 09:32:02;;;;;;;54.72;20.55;;;;;;;8.25;69.49;99324.81;4842720;29;20080;-92
2022/10/23 09:39:25;;;;;;;;;;;;;;;;;;;;;
2022/10/23 09:43:18;;;;;;;60.67;23.58;;;;;;;7.79;70.21;99260.22;5100167;23;20041;-94
2022/10/23 09:46:13;;;;;;;79.47;29.60;;;;;;;7.92;70.05;99248.56;4958529;28;20050;-94
2022/10/23 09:49:02;;;;;;;62.20;28.05;;;;;;;8.07;70.09;99265.75;4969559;28;20051;-92
2022/10/23 09:51:29;;;;;;;67.28;26.50;;;;;;;8.37;69.72;99297.91;4938163;28;20023;-93
2022/10/23 09:53:59;;;;;;;65.32;25.73;;;;;;;8.57;70.00;99320.47;4954990;28;20054;-93
2022/10/23 09:56:29;;;;;;;75.22;30.38;;;;;;;8.59;70.08;99335.44;4940460;28;20034;-89
2022/10/23 09:59:27;;;;;;;66.32;23.63;;;;;;;8.35;70.14;99302.84;4952747;28;20142;-91
2022/10/23 10:02:36;;;;;;;57.53;23.27;;;;;;;8.45;70.23;99310.88;4957939;28;20034;-93
2022/10/23 10:05:30;;;;;;;66.60;23.83;;;;;;;8.48;70.07;99304.03;4958309;28;20070;-85
2022/10/23 10:08:04;;;;;;;64.80;24.65;;;;;;;8.64;69.87;99319.00;4963447;28;20044;-92
2022/10/23 10:10:38;;;;;;;61.20;23.60;;;;;;;8.36;69.94;99285.41;4946776;28;20052;-89
2022/10/23 10:13:41;;;;;;;72.43;27.50;;;;;;;8.62;69.69;99317.69;4981097;28;20416;-93
2022/10/23 10:16:30;;;;;;;65.97;24.45;;;;;;;8.49;69.85;99291.22;4957860;28;20054;-91
2022/10/23 10:19:19;;;;;;;65.28;27.42;;;;;;;8.58;69.87;99303.84;4981422;28;20030;-93
2022/10/23 10:22:07;;;;;;;58.35;23.25;;;;;;;8.49;69.95;99294.75;4976715;28;20074;-93
2022/10/23 10:24:46;;;;;;;52.63;22.05;;;;;;;8.07;70.22;99244.78;4949547;28;20042;-93
2022/10/23 10:27:19;;;;;;;58.38;22.95;;;;;;;8.51;70.60;99311.63;4948876;28;20019;-93
2022/10/23 10:29:48;;;;;;;63.45;23.02;;;;;;;8.47;70.98;99302.41;4953302;28;20155;-93
2022/10/23 10:32:32;;;;;;;58.30;23.80;;;;;;;8.44;70.80;99300.28;4952462;28;20130;-93
2022/10/23 10:35:27;;;;;;;60.67;24.27;;;;;;;8.51;70.79;99294.44;4939097;28;20416;-86
2022/10/23 10:38:17;;;;;;;54.45;24.48;;;;;;;8.57;70.76;99294.03;4968615;28;20042;-92
2022/10/23 10:41:02;;;;;;;61.55;25.00;;;;;;;8.46;71.32;99287.16;4940569;28;20117;-92
2022/10/23 10:44:06;;;;;;;68.32;24.10;;;;;;;8.45;71.09;99278.19;4942164;28;20509;-94
2022/10/23 10:47:30;;;;;;;;;;;;;;;;;;;;;
2022/10/23 10:50:47;;;;;;;68.05;24.85;;;;;;;8.40;71.05;99282.91;4889730;29;20081;-95
2022/10/23 10:53:43;;;;;;;63.10;23.38;;;;;;;8.13;71.28;99224.53;4868293;29;20075;-87
2022/10/23 10:56:17;;;;;;;64.95;24.65;;;;;;;8.26;71.29;99242.00;4886332;29;20041;-85
2022/10/23 10:58:55;;;;;;;67.07;24.85;;;;;;;8.54;71.09;99256.50;4875820;29;20059;-88
2022/10/23 11:01:41;;;;;;;78.10;26.67;;;;;;;8.55;70.99;99258.13;4874737;29;20049;-86
2022/10/23 11:04:22;;;;;;;71.00;27.10;;;;;;;8.57;71.00;99255.91;4862406;29;20602;-86
2022/10/23 11:06:52;;;;;;;79.47;30.40;;;;;;;8.60;70.92;99247.13;4858514;29;20551;-87
2022/10/23 11:09:29;;;;;;;70.07;26.90;;;;;;;8.39;71.30;99227.63;4870158;29;20037;-87
2022/10/23 11:11:57;;;;;;;68.78;26.15;;;;;;;8.41;71.57;99219.16;4869823;29;20440;-86
2022/10/23 11:14:29;;;;;;;71.03;26.20;;;;;;;8.34;71.63;99218.72;4856192;29;20041;-86
2022/10/23 11:17:09;;;;;;;74.78;27.13;;;;;;;8.43;71.64;99215.03;4872056;29;20496;-88
2022/10/23 11:19:43;;;;;;;72.88;25.05;;;;;;;8.51;71.62;99212.69;4856492;29;20053;-87
2022/10/23 11:22:31;;;;;;;67.45;27.48;;;;;;;8.73;71.46;99226.44;4870545;28;20049;-86
2022/10/23 11:25:39;;;;;;;74.28;24.55;;;;;;;8.28;71.18;99162.72;4950807;28;20062;-87
2022/10/23 11:28:24;;;;;;;74.32;25.60;;;;;;;8.70;71.60;99227.84;4926881;28;20054;-87
2022/10/23 11:30:55;;;;;;;;;;;;;;;8.65;71.60;99229.88;4967327;28;20051;-86
2022/10/23 11:33:27;;;;;;;61.83;24.08;;;;;;;8.61;72.05;99217.94;4962060;28;20351;-85
2022/10/23 11:36:17;;;;;;;73.82;25.67;;;;;;;8.67;72.18;99216.75;4967107;28;20408;-83
2022/10/23 11:38:48;;;;;;;64.60;27.40;;;;;;;8.64;72.33;99210.00;4949516;28;20449;-84
2022/10/23 11:41:23;;;;;;;62.22;27.00;;;;;;;8.56;72.54;99209.91;4936947;28;20133;-85
2022/10/23 11:44:00;;;;;;;70.28;25.98;;;;;;;8.65;72.59;99208.09;4948019;28;612863;-85
2022/10/23 11:46:32;;;;;;;72.15;28.08;;;;;;;8.46;72.44;99181.72;4971305;28;20051;-88
2022/10/23 11:49:01;;;;;;;86.03;31.33;;;;;;;8.49;71.91;99176.81;4922411;29;20043;-85
2022/10/23 11:51:56;;;;;;;81.20;31.38;;;;;;;8.53;72.07;99172.34;4970768;28;20050;-83
2022/10/23 11:54:26;;;;;;;87.22;33.17;;;;;;;8.54;71.94;99166.59;4857238;29;20041;-83
2022/10/23 11:57:07;;;;;;;93.30;33.10;;;;;;;8.73;71.59;99193.75;4857569;29;20076;-87
2022/10/23 11:59:37;;;;;;;84.18;33.42;;;;;;;8.55;72.31;99178.31;4874581;29;20052;-86
2022/10/23 12:02:17;;;;;;;68.72;29.55;;;;;;;8.40;72.54;99158.41;4873148;29;20056;-87
2022/10/23 12:04:51;;;;;;;71.15;29.08;;;;;;;8.52;72.49;99171.56;4875176;29;20052;-88
2022/10/23 12:07:31;;;;;;;79.53;30.25;;;;;;;8.53;72.37;99162.25;4856102;29;20048;-85
2022/10/23 12:10:04;;;;;;;70.57;28.80;;;;;;;8.52;72.13;99157.94;4869971;29;20037;-85
2022/10/23 12:12:41;;;;;;;75.47;26.38;;;;;;;8.56;72.39;99155.41;4869830;29;20227;-86
2022/10/23 12:15:14;;;;;;;64.10;24.52;;;;;;;8.60;72.55;99176.28;4870387;29;20071;-85
2022/10/23 12:17:42;;;;;;;63.55;24.73;;;;;;;8.56;72.77;99171.75;4870164;29;20665;-87
2022/10/23 12:20:12;;;;;;;77.00;26.42;;;;;;;8.70;72.41;99178.78;4870714;29;20583;-85
2022/10/23 12:22:38;;;;;;;72.15;25.90;;;;;;;8.68;72.73;99174.78;4886019;29;20462;-86
2022/10/23 12:25:14;;;;;;;57.72;26.63;;;;;;;8.69;72.44;99177.19;4886686;29;20329;-86
2022/10/23 12:27:51;;;;;;;61.25;25.77;;;;;;;8.55;73.48;99156.53;4887977;29;20115;-91
2022/10/23 12:30:51;;;;;;;60.80;24.88;;;;;;;8.55;73.29;99173.69;4890768;28;20536;-88
2022/10/23 12:33:26;;;;;;;69.70;23.70;;;;;;;8.55;73.35;99175.59;4953352;28;20706;-87
2022/10/23 12:36:12;;;;;;;68.82;24.88;;;;;;;8.60;73.17;99167.31;4970806;28;20089;-87
2022/10/23 12:38:46;;;;;;;;;;;;;;;8.67;73.29;99163.06;4972897;28;20045;-88
2022/10/23 12:41:40;;;;;;;66.90;27.65;;;;;;;8.69;73.08;99160.84;4972019;28;19929;-90
2022/10/23 12:44:11;;;;;;;89.60;34.00;;;;;;;8.73;72.80;99154.78;4920597;29;20075;-87
2022/10/23 12:46:50;;;;;;;107.57;39.13;;;;;;;8.64;72.83;99141.88;4936038;29;20035;-84
2022/10/23 12:49:21;;;;;;;93.45;38.92;;;;;;;8.68;73.00;99145.63;4953486;29;20049;-86
2022/10/23 12:52:03;;;;;;;104.78;40.20;;;;;;;8.70;73.04;99134.41;4919011;29;20043;-85
2022/10/23 12:54:37;;;;;;;106.10;38.60;;;;;;;8.67;72.51;99119.44;4921232;29;20536;-86
2022/10/23 12:57:29;;;;;;;104.68;42.55;;;;;;;8.89;72.63;99147.91;4939096;29;20051;-87
2022/10/23 13:00:01;;;;;;;86.75;36.80;;;;;;;8.84;73.00;99143.38;4952024;28;20118;-83
2022/10/23 13:02:31;;;;;;;91.07;38.70;;;;;;;8.88;72.84;99143.56;4952425;28;20138;-84
2022/10/23 13:05:04;;;;;;;86.70;33.10;;;;;;;8.75;72.89;99111.69;4952592;29;20047;-86
2022/10/23 13:07:37;;;;;;;92.82;36.30;;;;;;;8.98;72.89;99143.34;4951475;29;20497;-84
2022/10/23 13:10:06;;;;;;;97.28;37.58;;;;;;;8.81;73.08;99108.56;4935633;29;20043;-86
2022/10/23 13:12:38;;;;;;;104.25;36.08;;;;;;;8.84;73.25;99107.13;4935827;29;20103;-87
2022/10/23 13:15:07;;;;;;;96.45;36.83;;;;;;;9.03;73.16;99128.78;4956849;28;20062;-87
2022/10/23 13:17:38;;;;;;;105.40;40.83;;;;;;;8.94;73.31;99123.28;4932219;29;20047;-87
2022/10/23 13:20:17;;;;;;;106.25;43.85;;;;;;;8.97;73.59;99124.56;4941371;29;20047;-88
2022/10/23 13:23:08;;;;;;;89.35;36.03;;;;;;;8.89;73.78;99116.00;4951352;29;20082;-88
2022/10/23 13:25:37;;;;;;;69.32;30.33;;;;;;;8.87;73.97;99120.97;4873629;29;20049;-87
2022/10/23 13:28:40;;;;;;;74.68;30.65;;;;;;;8.86;74.38;99115.81;4873920;29;20044;-87
2022/10/23 13:31:11;;;;;;;64.68;28.15;;;;;;;8.86;74.35;99119.31;4879641;29;20049;-88
2022/10/23 13:33:46;;;;;;;68.82;30.30;;;;;;;8.51;74.38;99068.31;4877944;29;20065;-88
2022/10/23 13:36:21;;;;;;;70.70;29.15;;;;;;;8.81;74.79;99110.47;4872837;29;20502;-90
2022/10/23 13:39:13;;;;;;;64.97;28.80;;;;;;;8.77;74.51;99091.19;4849780;29;20049;-91
2022/10/23 13:41:47;;;;;;;63.92;28.25;;;;;;;8.65;74.57;99072.66;4894571;29;21781;-91
2022/10/23 13:44:19;;;;;;;69.53;29.48;;;;;;;8.93;74.46;99106.06;4866282;29;20120;-89
2022/10/23 13:46:47;;;;;;;68.32;29.38;;;;;;;8.66;74.52;99076.97;4870362;29;20075;-90
2022/10/23 13:49:15;;;;;;;72.03;30.73;;;;;;;8.63;74.42;99074.06;4879767;29;20595;-91
2022/10/23 13:51:53;;;;;;;82.45;30.50;;;;;;;8.65;74.86;99067.19;4847141;29;20108;-87
2022/10/23 13:54:23;;;;;;;68.95;30.00;;;;;;;8.95;74.78;99111.25;4876640;29;20044;-86
2022/10/23 13:56:53;;;;;;;77.10;33.70;;;;;;;8.83;74.79;99094.59;4876665;29;20057;-84
2022/10/23 13:59:19;;;;;;;88.35;36.63;;;;;;;8.84;74.93;99093.47;4877614;29;20424;-90
2022/10/23 14:01:47;;;;;;;93.37;37.10;;;;;;;8.79;75.07;99096.34;4890651;29;20041;-91
2022/10/23 14:04:16;;;;;;;85.18;35.95;;;;;;;8.67;75.27;99075.84;4925027;29;20381;-92
2022/10/23 14:06:43;;;;;;;93.78;34.80;;;;;;;8.62;75.48;99064.28;4941677;29;20121;-89
2022/10/23 14:09:17;;;;;;;76.82;30.48;;;;;;;8.86;75.26;99085.81;4903338;29;20184;-83
2022/10/23 14:11:44;;;;;;;71.90;30.98;;;;;;;8.88;75.20;99099.97;4953369;29;20046;-89
2022/10/23 14:14:13;;;;;;;82.13;33.15;;;;;;;8.70;75.50;99077.97;4957962;29;20039;-93
2022/10/23 14:16:51;;;;;;;84.88;34.08;;;;;;;8.81;75.41;99083.22;4909663;29;20112;-91
2022/10/23 14:19:18;;;;;;;108.00;40.28;;;;;;;8.96;75.32;99092.97;4923936;29;20043;-88
2022/10/23 14:21:47;;;;;;;119.30;44.47;;;;;;;8.63;75.20;99042.16;4930324;29;20051;-92